Time;durP1;ratioP1;P1;durP2;ratioP2;P2;SDS_P1;SDS_P2;PMS_P1;PMS_P2;Temp;Humidity;BMP_temperature;BMP_pressure;BME280_temperature;BME280_humidity;BME280_pressure;Samples;Min_cycle;Max_cycle;Signal;HPM_P1;HPM_P2
2022/05/29 00:00:52;;;;;;;4.17;1.20;;;;;;;10.43;65.68;100286.62;1755577;80;21062;-81
2022/05/29 00:03:20;;;;;;;6.77;1.60;;;;;;;10.42;65.52;100280.13;1755589;80;21070;-81
2022/05/29 00:05:49;;;;;;;4.73;1.30;;;;;;;10.42;65.47;100278.81;1750609;80;21281;-81
2022/05/29 00:08:30;;;;;;;7.15;1.92;;;;;;;10.40;65.38;100280.66;1749365;80;21067;-81
2022/05/29 00:10:59;;;;;;;6.43;1.10;;;;;;;10.39;65.40;100280.25;1749086;80;21604;-80
2022/05/29 00:13:28;;;;;;;4.97;1.30;;;;;;;10.40;65.24;100283.28;1749380;80;21052;-81
2022/05/29 00:15:56;;;;;;;6.50;1.37;;;;;;;10.40;65.28;100279.35;1749175;80;21092;-81
2022/05/29 00:18:24;;;;;;;3.10;1.20;;;;;;;10.41;65.23;100283.20;1749999;80;21104;-81
2022/05/29 00:20:54;;;;;;;6.60;1.50;;;;;;;10.38;65.09;100282.02;1750611;80;21037;-82
2022/05/29 00:23:22;;;;;;;7.73;1.47;;;;;;;10.36;65.00;100277.75;1751094;80;21534;-81
2022/05/29 00:25:52;;;;;;;9.33;1.70;;;;;;;10.33;64.99;100279.17;1750688;80;21678;-81
2022/05/29 00:28:20;;;;;;;4.95;1.20;;;;;;;10.30;64.93;100282.77;1751092;80;21549;-81
2022/05/29 00:30:48;;;;;;;5.87;1.50;;;;;;;10.24;64.89;100278.58;1750636;80;21135;-81
2022/05/29 00:33:15;;;;;;;5.10;1.40;;;;;;;10.20;64.83;100279.62;1750875;80;21040;-82
2022/05/29 00:35:42;;;;;;;5.57;1.50;;;;;;;10.16;65.00;100282.40;1750583;80;21010;-81
2022/05/29 00:38:12;;;;;;;5.97;1.20;;;;;;;10.12;64.91;100286.05;1751015;80;21044;-82
2022/05/29 00:41:00;;;;;;;4.55;1.10;;;;;;;10.09;64.95;100282.21;1750997;80;21497;-82
2022/05/29 00:43:27;;;;;;;8.23;1.43;;;;;;;10.06;64.92;100281.90;1750611;80;21590;-81
2022/05/29 00:46:02;;;;;;;7.57;1.20;;;;;;;10.03;65.04;100284.60;1742682;80;20990;-81
2022/05/29 00:48:30;;;;;;;5.90;1.20;;;;;;;10.01;65.05;100291.22;1690037;83;21055;-81
2022/05/29 00:51:02;;;;;;;5.77;1.30;;;;;;;9.99;65.01;100285.64;1690585;83;21066;-81
2022/05/29 00:53:32;;;;;;;6.27;1.17;;;;;;;9.96;65.03;100289.69;1734964;81;21064;-82
2022/05/29 00:56:07;;;;;;;6.08;1.20;;;;;;;9.94;65.04;100276.63;1687960;83;21788;-82
2022/05/29 00:58:35;;;;;;;5.23;1.00;;;;;;;9.92;65.02;100282.83;1734715;81;21010;-82
2022/05/29 01:01:03;;;;;;;6.40;1.10;;;;;;;9.89;65.08;100279.02;1690985;83;21067;-81
2022/05/29 01:03:30;;;;;;;8.27;2.53;;;;;;;9.86;65.07;100281.29;1711426;83;21064;-81
2022/05/29 01:05:57;;;;;;;7.00;1.43;;;;;;;9.81;65.17;100280.16;1771697;81;21044;-81
2022/05/29 01:08:36;;;;;;;4.50;1.30;;;;;;;9.76;65.25;100275.55;1739170;81;21281;-81
2022/05/29 01:11:20;;;;;;;5.97;1.23;;;;;;;9.68;65.39;100270.19;1731459;81;21230;-81
2022/05/29 01:14:12;;;;;;;7.40;1.50;;;;;;;9.59;65.51;100280.53;1728385;81;21064;-82
2022/05/29 01:16:57;;;;;;;7.10;1.60;;;;;;;9.48;65.56;100270.89;1749815;80;21044;-82
2022/05/29 01:19:57;;;;;;;3.47;1.10;;;;;;;9.32;65.67;100269.24;1749747;80;21088;-81
2022/05/29 01:22:55;;;;;;;6.20;1.30;;;;;;;9.22;65.99;100261.30;1727707;81;21291;-81
2022/05/29 01:25:42;;;;;;;5.13;1.50;;;;;;;9.08;66.04;100267.83;1750872;81;21004;-81
2022/05/29 01:28:36;;;;;;;4.30;1.20;;;;;;;8.99;66.47;100261.61;1750829;81;21012;-81
2022/05/29 01:31:27;;;;;;;6.07;1.43;;;;;;;8.95;66.59;100267.83;1746161;81;21060;-81
2022/05/29 01:34:08;;;;;;;6.00;1.27;;;;;;;8.93;66.76;100257.89;1750539;80;20998;-81
2022/05/29 01:36:59;;;;;;;5.93;1.30;;;;;;;8.89;67.01;100262.80;1745425;81;21968;-81
2022/05/29 01:39:37;;;;;;;8.03;1.37;;;;;;;8.86;66.98;100257.67;1728356;81;21055;-81
2022/05/29 01:42:31;;;;;;;8.50;1.50;;;;;;;8.83;67.03;100252.09;1750838;81;21010;-81
2022/05/29 01:45:31;;;;;;;5.80;1.40;;;;;;;8.84;67.36;100255.55;1750184;80;21105;-81
2022/05/29 01:48:09;;;;;;;4.72;1.65;;;;;;;8.84;67.30;100256.44;1750655;80;21511;-81
2022/05/29 01:50:47;;;;;;;3.10;1.30;;;;;;;8.84;67.32;100253.83;1750677;81;22164;-81
2022/05/29 01:53:25;;;;;;;3.90;1.30;;;;;;;8.83;67.36;100250.78;1750831;81;21068;-81
2022/05/29 01:55:57;;;;;;;5.30;1.30;;;;;;;8.80;67.41;100254.81;1750553;80;20978;-81
2022/05/29 01:58:35;;;;;;;4.30;1.37;;;;;;;8.79;67.51;100253.11;1751040;81;20997;-81
2022/05/29 02:01:06;;;;;;;6.30;1.80;;;;;;;8.77;67.65;100253.61;1750666;81;21146;-82
2022/05/29 02:03:38;;;;;;;7.15;1.67;;;;;;;8.77;67.71;100253.61;1750991;81;21095;-81
2022/05/29 02:06:11;;;;;;;7.40;1.90;;;;;;;8.76;67.71;100248.41;1750602;81;21048;-82
2022/05/29 02:08:43;;;;;;;9.30;2.57;;;;;;;8.75;67.85;100244.95;1749255;80;21084;-81
2022/05/29 02:11:22;;;;;;;6.90;2.10;;;;;;;8.73;67.75;100245.90;1750710;81;20981;-81
2022/05/29 02:14:03;;;;;;;7.33;1.60;;;;;;;8.70;67.88;100246.85;1728709;81;21100;-81
2022/05/29 02:16:47;;;;;;;6.27;1.73;;;;;;;8.70;68.12;100242.50;1750602;81;21131;-81
2022/05/29 02:19:32;;;;;;;5.23;1.43;;;;;;;8.70;68.21;100242.93;1736830;80;21011;-81
2022/05/29 02:22:04;;;;;;;5.43;1.40;;;;;;;8.70;68.40;100245.12;1728298;83;21066;-81
2022/05/29 02:24:40;;;;;;;5.97;1.80;;;;;;;8.69;68.32;100241.23;1708408;83;21122;-81
2022/05/29 02:27:15;;;;;;;6.00;1.60;;;;;;;8.67;68.24;100245.64;1728201;82;21103;-81
2022/05/29 02:29:43;;;;;;;7.53;1.67;;;;;;;8.64;68.21;100241.83;1728812;83;21107;-81
2022/05/29 02:32:18;;;;;;;4.70;1.37;;;;;;;8.63;68.43;100246.20;1728272;82;21039;-81
2022/05/29 02:35:18;;;;;;;6.97;1.80;;;;;;;8.68;68.64;100244.77;1727635;82;21054;-81
2022/05/29 02:38:08;;;;;;;6.08;1.65;;;;;;;8.71;68.53;100242.89;1728565;83;21541;-81
2022/05/29 02:40:46;;;;;;;5.83;1.40;;;;;;;8.72;68.53;100243.74;1728555;82;21560;-81
2022/05/29 02:43:24;;;;;;;9.43;1.43;;;;;;;8.74;68.59;100247.63;1728420;81;21095;-81
2022/05/29 02:46:32;;;;;;;5.47;1.50;;;;;;;8.74;68.55;100243.25;1705547;83;21062;-81
2022/05/29 02:49:26;;;;;;;5.13;1.30;;;;;;;8.75;68.71;100248.88;1728189;81;21039;-80
2022/05/29 02:52:10;;;;;;;4.23;1.30;;;;;;;8.80;68.86;100250.04;1728394;81;21063;-81
2022/05/29 02:54:38;;;;;;;4.90;1.60;;;;;;;8.80;68.89;100250.04;1762279;81;21503;-81
2022/05/29 02:57:06;;;;;;;6.30;1.73;;;;;;;8.74;68.59;100248.48;1762645;80;21121;-81
2022/05/29 02:59:48;;;;;;;6.33;1.77;;;;;;;8.73;68.70;100252.43;1762175;80;21065;-81
2022/05/29 03:02:57;;;;;;;4.73;1.30;;;;;;;8.69;68.65;100255.14;1728680;81;21071;-81
2022/05/29 03:05:38;;;;;;;5.57;1.63;;;;;;;8.66;68.69;100253.94;1746138;81;21453;-81
2022/05/29 03:08:37;;;;;;;5.30;1.40;;;;;;;8.62;68.74;100253.65;1726816;82;21028;-80
2022/05/29 03:11:33;;;;;;;8.77;1.70;;;;;;;8.58;68.86;100257.23;1728439;83;21087;-80
2022/05/29 03:14:08;;;;;;;6.00;1.77;;;;;;;8.60;69.02;100258.06;1728274;82;21052;-80
2022/05/29 03:17:01;;;;;;;7.13;1.83;;;;;;;8.62;68.96;100261.95;1762229;81;21043;-81
2022/05/29 03:19:45;;;;;;;6.27;1.60;;;;;;;8.60;68.94;100258.06;1679996;83;21093;-81
2022/05/29 03:22:33;;;;;;;4.87;1.70;;;;;;;8.58;68.95;100264.23;1695127;84;21458;-79
2022/05/29 03:25:23;;;;;;;8.60;1.20;;;;;;;8.57;68.94;100263.84;1694489;84;21959;-79
2022/05/29 03:27:53;;;;;;;9.48;1.90;;;;;;;8.58;69.07;100267.69;1694905;84;21014;-80
2022/05/29 03:30:25;;;;;;;5.03;1.25;;;;;;;8.59;68.99;100268.12;1694772;84;21095;-79
2022/05/29 03:32:59;;;;;;;8.10;1.67;;;;;;;8.61;69.23;100271.52;1694734;84;21017;-80
2022/05/29 03:35:31;;;;;;;3.90;1.50;;;;;;;8.67;69.42;100270.47;1694873;84;21141;-79
2022/05/29 03:38:01;;;;;;;5.57;1.20;;;;;;;8.70;69.20;100271.67;1694748;84;21296;-80
2022/05/29 03:40:31;;;;;;;7.72;1.60;;;;;;;8.72;69.33;100273.80;1694771;84;21029;-80
2022/05/29 03:42:59;;;;;;;5.17;1.55;;;;;;;8.76;69.22;100270.63;1694949;84;26547;-80
2022/05/29 03:45:27;;;;;;;10.00;1.80;;;;;;;8.78;69.30;100260.53;1694681;84;21502;-79
2022/05/29 03:47:55;;;;;;;4.17;1.23;;;;;;;8.85;69.80;100267.28;1695016;84;21041;-80
2022/05/29 03:50:25;;;;;;;10.03;1.97;;;;;;;8.91;69.63;100267.08;1694833;84;21136;-79
2022/05/29 03:52:52;;;;;;;5.83;1.30;;;;;;;8.94;69.49;100263.52;1694885;84;21084;-79
2022/05/29 03:55:22;;;;;;;6.47;1.60;;;;;;;8.98;69.58;100259.91;1695677;84;21086;-79
2022/05/29 03:57:50;;;;;;;8.23;1.47;;;;;;;9.01;69.33;100255.89;1724380;83;21059;-80
2022/05/29 04:00:20;;;;;;;5.80;1.83;;;;;;;9.02;69.23;100257.58;1728290;83;21093;-79
2022/05/29 04:02:48;;;;;;;6.75;1.70;;;;;;;9.04;69.39;100255.78;1729029;83;21911;-79
2022/05/29 04:05:22;;;;;;;7.47;1.77;;;;;;;9.06;69.30;100262.25;1728207;83;21537;-80
2022/05/29 04:13:27;;;;;;;5.85;1.77;;;;;;;9.11;69.32;100249.88;1762680;81;21023;-79
2022/05/29 04:15:55;;;;;;;7.70;1.73;;;;;;;9.14;69.32;100258.50;1762182;81;21295;-79
2022/05/29 04:18:22;;;;;;;5.00;1.60;;;;;;;9.17;69.12;100253.59;1762482;81;21026;-79
2022/05/29 04:20:52;;;;;;;4.10;1.47;;;;;;;9.15;69.04;100251.05;1774275;79;21051;-79
2022/05/29 04:23:20;;;;;;;6.63;1.70;;;;;;;9.17;69.13;100252.28;1774726;80;21047;-80
2022/05/29 04:25:48;;;;;;;7.20;1.67;;;;;;;9.20;69.10;100249.59;1774825;80;21028;-79
2022/05/29 04:28:16;;;;;;;9.40;1.60;;;;;;;9.24;69.15;100251.64;1774688;80;21134;-79
2022/05/29 04:30:45;;;;;;;7.73;1.67;;;;;;;9.27;69.03;100252.84;1774884;80;21027;-79
2022/05/29 04:33:12;;;;;;;6.47;1.70;;;;;;;9.26;68.88;100253.30;1774694;80;21012;-80
2022/05/29 04:35:43;;;;;;;5.97;1.77;;;;;;;9.27;68.92;100248.92;1774664;80;21047;-79
2022/05/29 04:38:12;;;;;;;8.50;1.57;;;;;;;9.29;69.18;100244.50;1728711;80;21044;-79
2022/05/29 04:40:42;;;;;;;6.17;1.50;;;;;;;9.35;69.32;100241.67;1737904;80;21826;-79
2022/05/29 04:43:14;;;;;;;7.20;1.90;;;;;;;9.37;69.12;100252.48;1737853;80;21065;-79
2022/05/29 04:45:44;;;;;;;7.10;1.77;;;;;;;9.40;69.14;100244.14;1738117;80;21498;-79
2022/05/29 04:48:14;;;;;;;6.10;1.67;;;;;;;9.43;69.06;100242.72;1738003;80;21069;-79
2022/05/29 04:50:42;;;;;;;8.80;1.77;;;;;;;9.45;68.91;100240.45;1738350;80;21061;-79
2022/05/29 04:53:10;;;;;;;5.47;1.43;;;;;;;9.46;68.76;100246.08;1737882;80;21105;-79
2022/05/29 04:55:40;;;;;;;8.83;1.70;;;;;;;9.48;68.76;100244.27;1738004;80;21053;-78
2022/05/29 04:58:08;;;;;;;7.25;1.62;;;;;;;9.51;68.73;100243.31;1738181;80;21060;-79
2022/05/29 05:00:36;;;;;;;9.00;1.70;;;;;;;9.54;68.76;100243.20;1738114;80;21096;-79
2022/05/29 05:03:03;;;;;;;7.53;2.20;;;;;;;9.59;68.87;100242.12;1737983;80;21290;-79
2022/05/29 05:05:30;;;;;;;6.67;1.60;;;;;;;9.63;68.76;100240.70;1760766;80;21060;-79
2022/05/29 05:07:57;;;;;;;6.07;1.43;;;;;;;9.67;68.73;100238.36;1769313;80;21118;-79
2022/05/29 05:10:24;;;;;;;4.50;1.63;;;;;;;9.74;68.79;100237.24;1771757;80;21000;-79
2022/05/29 05:12:53;;;;;;;8.20;2.57;;;;;;;9.78;68.62;100240.13;1774270;80;21016;-79
2022/05/29 05:15:21;;;;;;;5.77;1.53;;;;;;;9.84;68.64;100238.62;1764143;80;21069;-78
2022/05/29 05:17:48;;;;;;;6.73;1.77;;;;;;;9.86;68.71;100239.41;1772358;80;21129;-78
2022/05/29 05:20:16;;;;;;;10.80;1.87;;;;;;;9.93;68.74;100239.59;1766775;79;20995;-79
2022/05/29 05:22:43;;;;;;;10.67;1.67;;;;;;;9.98;68.45;100247.28;1770525;80;21052;-78
2022/05/29 05:25:11;;;;;;;8.80;1.73;;;;;;;10.01;68.32;100246.70;1771475;80;20984;-79
2022/05/29 05:27:38;;;;;;;8.20;1.50;;;;;;;10.04;68.25;100256.22;1771716;80;21016;-79
2022/05/29 05:30:07;;;;;;;4.67;1.37;;;;;;;10.07;68.10;100250.02;1773578;80;21110;-79
2022/05/29 05:32:34;;;;;;;5.83;1.50;;;;;;;10.11;68.10;100252.90;1773811;80;20985;-78
2022/05/29 05:35:05;;;;;;;10.60;1.90;;;;;;;10.18;68.13;100254.39;1769548;80;21525;-78
2022/05/29 05:37:34;;;;;;;7.97;1.65;;;;;;;10.20;67.84;100250.80;1765975;80;21017;-79
2022/05/29 05:40:04;;;;;;;4.92;1.42;;;;;;;10.24;68.01;100244.52;1771588;80;21265;-79
2022/05/29 05:42:31;;;;;;;4.85;1.40;;;;;;;10.33;67.89;100247.27;1764676;79;21143;-79
2022/05/29 05:44:59;;;;;;;5.50;1.30;;;;;;;10.40;67.97;100241.36;1769779;80;21045;-79
2022/05/29 05:47:26;;;;;;;7.30;1.33;;;;;;;10.47;67.96;100245.44;1770153;80;21005;-79
2022/05/29 05:49:53;;;;;;;6.47;1.50;;;;;;;10.54;67.84;100254.77;1765791;80;21062;-79
2022/05/29 05:52:20;;;;;;;5.43;1.30;;;;;;;10.61;67.53;100252.75;1772220;80;21486;-79
2022/05/29 05:54:47;;;;;;;7.07;1.53;;;;;;;10.67;67.26;100245.98;1767542;80;21132;-79
2022/05/29 05:57:20;;;;;;;6.07;1.50;;;;;;;10.73;67.21;100244.42;1769378;80;20988;-79
2022/05/29 05:59:47;;;;;;;6.70;1.27;;;;;;;10.79;67.04;100244.63;1768889;80;21059;-79
2022/05/29 06:02:15;;;;;;;6.87;1.50;;;;;;;10.84;66.82;100240.91;1772088;80;21083;-79
2022/05/29 06:04:43;;;;;;;11.73;1.80;;;;;;;10.90;66.70;100242.42;1769275;80;21008;-79
2022/05/29 06:07:10;;;;;;;6.37;1.40;;;;;;;10.96;66.67;100241.31;1770650;80;21131;-79
2022/05/29 06:09:38;;;;;;;6.67;1.30;;;;;;;11.02;66.61;100239.75;1765601;80;21012;-80
2022/05/29 06:12:07;;;;;;;5.40;1.20;;;;;;;11.06;66.34;100242.66;1773249;80;21007;-79
2022/05/29 06:14:35;;;;;;;7.55;1.20;;;;;;;11.13;66.35;100245.39;1774604;80;21001;-79
2022/05/29 06:17:07;;;;;;;8.23;1.53;;;;;;;11.21;66.20;100241.14;1764929;80;21040;-79
2022/05/29 06:19:34;;;;;;;5.90;1.90;;;;;;;11.24;66.16;100239.70;1774371;80;21111;-79
2022/05/29 06:22:02;;;;;;;5.10;1.40;;;;;;;11.28;66.28;100245.20;1757154;80;21074;-79
2022/05/29 06:24:29;;;;;;;11.20;2.00;;;;;;;11.35;66.24;100244.03;1762914;80;21119;-79
2022/05/29 06:26:59;;;;;;;4.73;1.30;;;;;;;11.39;66.06;100246.94;1760990;80;21046;-79
2022/05/29 06:29:27;;;;;;;7.30;1.70;;;;;;;11.43;66.02;100250.27;1737907;80;21060;-79
2022/05/29 06:32:04;;;;;;;10.17;1.70;;;;;;;11.46;65.84;100252.30;1733160;80;21149;-79
2022/05/29 06:34:33;;;;;;;5.23;1.90;;;;;;;11.49;65.72;100255.25;1733011;80;21029;-80
2022/05/29 06:37:07;;;;;;;9.30;2.23;;;;;;;11.50;65.71;100255.63;1733729;80;21006;-79
2022/05/29 06:39:36;;;;;;;6.77;1.87;;;;;;;11.53;65.67;100257.69;1733151;80;21053;-84
2022/05/29 06:42:05;;;;;;;10.10;2.37;;;;;;;11.54;65.42;100254.13;1733450;80;21649;-78
2022/05/29 06:44:37;;;;;;;5.25;1.47;;;;;;;11.55;65.16;100258.45;1733785;80;21142;-80
2022/05/29 06:47:11;;;;;;;8.80;1.80;;;;;;;11.60;65.47;100257.80;1733306;80;20997;-81
2022/05/29 06:49:36;;;;;;;6.12;1.25;;;;;;;11.66;65.03;100262.39;1731859;80;21471;-80
2022/05/29 06:52:09;;;;;;;8.07;1.73;;;;;;;11.67;64.83;100259.72;1733306;80;21049;-83
2022/05/29 06:54:37;;;;;;;6.13;1.43;;;;;;;11.70;64.95;100262.20;1733131;80;21064;-80
2022/05/29 06:57:06;;;;;;;7.17;1.37;;;;;;;11.75;64.79;100264.61;1688550;82;21109;-78
2022/05/29 07:07:58;;;;;;;5.70;1.60;;;;;;;11.87;63.97;100277.25;1688432;82;21550;-79
2022/05/29 07:10:27;;;;;;;5.28;1.40;;;;;;;11.88;63.91;100264.96;1699994;82;21098;-79
2022/05/29 07:12:55;;;;;;;7.08;1.40;;;;;;;11.92;64.07;100270.02;1710318;82;21033;-78
2022/05/29 07:15:23;;;;;;;7.10;1.50;;;;;;;11.97;63.94;100278.55;1732597;82;21604;-77
2022/05/29 07:17:50;;;;;;;4.27;1.30;;;;;;;12.02;63.58;100283.58;1727044;82;21529;-79
2022/05/29 07:20:18;;;;;;;9.35;1.75;;;;;;;12.11;63.43;100273.98;1772360;78;21031;-82
2022/05/29 07:22:46;;;;;;;6.70;1.87;;;;;;;12.18;62.97;100274.55;1784355;79;21038;-81
2022/05/29 07:25:13;;;;;;;8.68;1.87;;;;;;;12.26;62.91;100282.94;1784401;79;20999;-80
2022/05/29 07:27:40;;;;;;;4.40;1.37;;;;;;;12.39;62.51;100278.83;1780600;79;21071;-80
2022/05/29 07:30:09;;;;;;;8.48;2.40;;;;;;;12.49;62.30;100279.23;1781267;79;21039;-79
2022/05/29 07:32:36;;;;;;;8.53;1.90;;;;;;;12.56;62.06;100275.41;1778127;80;21556;-82
2022/05/29 07:35:04;;;;;;;6.58;1.17;;;;;;;12.67;62.04;100276.22;1783181;79;21104;-83
2022/05/29 07:37:31;;;;;;;4.87;1.20;;;;;;;12.78;61.85;100271.77;1781165;80;21557;-83
2022/05/29 07:40:00;;;;;;;3.72;1.10;;;;;;;12.78;61.33;100273.08;1784493;79;21105;-82
2022/05/29 07:45:13;;;;;;;6.22;1.45;;;;;;;12.66;60.38;100277.97;1782981;79;21526;-80
2022/05/29 07:47:43;;;;;;;6.60;1.75;;;;;;;12.62;60.19;100280.36;1751437;80;21071;-80
2022/05/29 07:50:31;;;;;;;;;;;;;;;;;;;;;
2022/05/29 07:52:56;;;;;;;5.75;1.30;;;;;;;12.64;60.02;100280.31;1763452;78;21455;-80
2022/05/29 07:55:23;;;;;;;3.92;1.35;;;;;;;12.64;59.86;100275.05;1779972;80;21003;-80
2022/05/29 07:57:53;;;;;;;4.75;1.27;;;;;;;12.64;59.65;100281.16;1769541;80;21053;-80
2022/05/29 08:00:22;;;;;;;7.12;1.30;;;;;;;12.64;59.58;100276.36;1781637;80;21146;-79
2022/05/29 08:02:51;;;;;;;4.78;1.00;;;;;;;12.67;59.55;100270.48;1780127;79;21118;-79
2022/05/29 08:05:21;;;;;;;5.05;1.22;;;;;;;12.75;59.43;100270.13;1783529;80;21007;-84
2022/05/29 08:07:51;;;;;;;5.22;1.22;;;;;;;12.85;59.75;100266.58;1761689;80;21466;-81
2022/05/29 08:10:22;;;;;;;4.70;0.95;;;;;;;12.96;59.17;100265.59;1755205;80;22973;-79
2022/05/29 08:12:49;;;;;;;7.03;1.60;;;;;;;13.02;59.04;100257.38;1765960;79;21108;-83
2022/05/29 08:15:17;;;;;;;5.87;1.47;;;;;;;13.13;59.29;100258.17;1779346;80;21031;-79
2022/05/29 08:17:46;;;;;;;6.42;1.50;;;;;;;13.26;59.28;100264.56;1785473;80;20995;-79
2022/05/29 08:20:15;;;;;;;7.40;1.73;;;;;;;13.38;58.98;100261.33;1785645;79;21122;-80
2022/05/29 08:22:42;;;;;;;4.95;1.42;;;;;;;13.48;59.03;100263.01;1785442;79;21357;-80
2022/05/29 08:30:54;;;;;;;5.35;1.02;;;;;;;13.52;57.95;100259.31;1773944;80;21586;-80
2022/05/29 08:33:28;;;;;;;4.10;1.00;;;;;;;13.54;57.61;100256.11;1753556;80;21725;-82
2022/05/29 08:36:11;;;;;;;3.62;1.05;;;;;;;13.57;57.70;100259.89;1775781;80;21062;-82
2022/05/29 08:38:43;;;;;;;6.17;1.10;;;;;;;13.61;57.38;100260.61;1779755;79;21537;-81
2022/05/29 08:41:21;;;;;;;4.28;1.15;;;;;;;13.59;57.26;100260.67;1780336;80;21015;-80
2022/05/29 08:44:28;;;;;;;3.40;0.93;;;;;;;13.57;57.16;100257.73;1778854;79;21057;-79
2022/05/29 08:47:01;;;;;;;5.00;1.45;;;;;;;13.57;57.06;100256.41;1775604;80;21611;-80
2022/05/29 08:49:31;;;;;;;4.92;1.00;;;;;;;13.60;57.08;100250.98;1782978;80;21504;-80
2022/05/29 08:52:06;;;;;;;3.17;1.00;;;;;;;13.76;56.90;100254.52;1783479;80;21135;-79
2022/05/29 08:55:12;;;;;;;5.72;1.30;;;;;;;13.92;56.95;100255.05;1781469;80;21094;-83
2022/05/29 08:58:01;;;;;;;7.17;1.55;;;;;;;14.10;57.01;100257.15;1780098;80;21046;-81
2022/05/29 09:00:59;;;;;;;6.55;1.07;;;;;;;14.21;56.70;100260.90;1780190;80;21043;-83
2022/05/29 09:03:40;;;;;;;3.95;1.10;;;;;;;14.24;56.06;100257.25;1779111;80;21059;-82
2022/05/29 09:06:13;;;;;;;5.10;1.17;;;;;;;14.28;56.25;100248.25;1782868;79;21043;-81
2022/05/29 09:08:51;;;;;;;3.67;0.80;;;;;;;14.33;56.11;100248.86;1784170;79;21118;-80
2022/05/29 09:11:29;;;;;;;6.28;1.47;;;;;;;14.35;55.86;100248.28;1774945;79;21043;-79
2022/05/29 09:14:07;;;;;;;3.00;0.93;;;;;;;14.35;55.85;100252.23;1756382;80;21022;-82
2022/05/29 09:16:40;;;;;;;1.90;0.80;;;;;;;14.35;55.20;100250.92;1773397;80;21051;-80
2022/05/29 09:19:18;;;;;;;5.45;1.17;;;;;;;14.36;54.81;100242.56;1781836;80;21094;-82
2022/05/29 09:21:56;;;;;;;3.75;0.82;;;;;;;14.53;55.04;100245.61;1721931;80;21048;-84
2022/05/29 09:24:34;;;;;;;6.05;1.22;;;;;;;14.79;54.61;100233.58;1760793;80;21082;-80
2022/05/29 09:27:02;;;;;;;3.10;1.20;;;;;;;14.98;54.58;100236.86;1756784;80;21457;-81
2022/05/29 09:29:30;;;;;;;4.72;1.00;;;;;;;15.09;54.11;100234.44;1758847;80;21046;-80
2022/05/29 09:31:58;;;;;;;8.48;1.27;;;;;;;15.16;54.10;100235.80;1756801;80;21040;-80
2022/05/29 09:34:25;;;;;;;4.95;1.17;;;;;;;15.21;53.85;100232.87;1756648;80;21028;-79
2022/05/29 09:37:06;;;;;;;4.35;1.15;;;;;;;15.23;53.74;100225.72;1756746;80;21020;-80
2022/05/29 09:39:42;;;;;;;4.50;1.22;;;;;;;15.27;53.55;100225.05;1741733;80;21005;-79
2022/05/29 09:42:36;;;;;;;3.30;0.85;;;;;;;15.34;53.69;100222.44;1763021;79;21046;-81
2022/05/29 09:45:27;;;;;;;2.17;0.88;;;;;;;15.40;53.02;100223.39;1757882;80;21200;-80
2022/05/29 09:50:51;;;;;;;2.98;0.98;;;;;;;15.30;51.84;100224.90;1757320;79;21008;-80
2022/05/29 09:53:30;;;;;;;3.83;0.98;;;;;;;15.22;51.50;100216.58;1756697;80;22304;-78
2022/05/29 09:56:10;;;;;;;2.22;0.88;;;;;;;15.14;51.60;100219.19;1751803;79;21049;-79
2022/05/29 09:58:55;;;;;;;;;;;;;;;15.02;51.82;100219.92;1759327;80;21290;-81
2022/05/29 10:01:40;;;;;;;3.20;0.80;;;;;;;14.93;51.53;100226.55;1756778;80;20117;-80
2022/05/29 10:04:32;;;;;;;4.30;1.10;;;;;;;14.84;51.72;100217.86;1757073;80;21739;-79
2022/05/29 10:07:00;;;;;;;3.95;1.00;;;;;;;14.83;52.04;100216.17;1752050;80;21575;-81
2022/05/29 10:09:30;;;;;;;5.12;0.95;;;;;;;14.82;51.63;100215.77;1773020;80;21560;-80
2022/05/29 10:12:18;;;;;;;3.00;0.80;;;;;;;14.88;51.42;100215.89;1777347;80;21982;-78
2022/05/29 10:14:45;;;;;;;2.12;0.70;;;;;;;15.01;51.35;100212.92;1791871;80;21588;-80
2022/05/29 10:17:33;;;;;;;1.12;0.50;;;;;;;15.29;50.82;100209.50;1793996;80;20968;-78
2022/05/29 10:20:06;;;;;;;1.80;0.55;;;;;;;15.65;51.15;100204.73;1794426;79;21031;-77
2022/05/29 10:22:41;;;;;;;2.00;0.70;;;;;;;16.16;51.26;100200.69;1755126;80;21019;-80
2022/05/29 10:25:20;;;;;;;4.58;1.10;;;;;;;16.68;51.27;100209.23;1777698;80;21018;-80
2022/05/29 10:27:51;;;;;;;1.98;0.70;;;;;;;16.97;50.71;100199.86;1754296;80;21537;-81
2022/05/29 10:30:51;;;;;;;3.02;0.95;;;;;;;17.01;49.56;100205.79;1777754;80;20997;-81
2022/05/29 10:33:22;;;;;;;;;;;;;;;16.91;49.02;100213.03;1773995;80;21867;-82
2022/05/29 10:35:53;;;;;;;3.77;1.15;;;;;;;16.69;48.10;100211.40;1761503;80;20544;-82
2022/05/29 10:38:26;;;;;;;2.35;0.62;;;;;;;16.41;48.24;100221.13;1777388;80;21237;-81
2022/05/29 10:40:58;;;;;;;1.77;0.65;;;;;;;16.11;48.17;100221.27;1777700;80;21019;-80
2022/05/29 10:43:43;;;;;;;4.65;0.80;;;;;;;15.90;48.43;100212.88;1776796;80;21036;-81
2022/05/29 10:46:43;;;;;;;1.75;0.75;;;;;;;15.80;48.59;100205.16;1777590;80;21007;-81
2022/05/29 10:49:33;;;;;;;3.92;0.88;;;;;;;15.68;48.72;100210.70;1777563;80;20996;-80
2022/05/29 10:52:35;;;;;;;4.55;1.00;;;;;;;15.61;48.62;100214.66;1777775;80;21789;-81
2022/05/29 10:55:14;;;;;;;1.62;0.90;;;;;;;15.54;48.85;100223.40;1777476;80;21098;-77
2022/05/29 10:58:15;;;;;;;3.47;0.90;;;;;;;15.53;49.17;100212.95;1776880;80;21063;-81
2022/05/29 11:04:54;;;;;;;2.67;0.90;;;;;;;15.83;49.13;100219.50;1768726;80;21055;-81
2022/05/29 11:07:48;;;;;;;3.60;0.78;;;;;;;15.72;48.57;100238.66;1764724;80;21935;-78
2022/05/29 11:10:40;;;;;;;2.27;0.70;;;;;;;15.67;48.35;100232.77;1777435;80;21023;-81
2022/05/29 11:13:52;;;;;;;2.85;0.80;;;;;;;15.66;48.32;100233.72;1777760;80;21078;-79
2022/05/29 11:17:01;;;;;;;2.52;0.72;;;;;;;15.62;48.22;100230.87;1764260;80;21028;-80
2022/05/29 11:19:58;;;;;;;4.97;0.82;;;;;;;15.60;47.88;100217.77;1777326;80;21019;-78
2022/05/29 11:22:43;;;;;;;3.30;0.70;;;;;;;15.77;48.31;100215.45;1782681;79;22095;-78
2022/05/29 11:25:34;;;;;;;2.67;0.70;;;;;;;16.06;48.67;100217.59;1783741;80;21517;-82
2022/05/29 11:28:38;;;;;;;2.92;0.75;;;;;;;16.26;48.19;100213.67;1771747;80;21019;-80
2022/05/29 11:31:34;;;;;;;1.80;0.60;;;;;;;16.33;48.06;100214.16;1775071;79;21541;-81
2022/05/29 11:34:19;;;;;;;2.10;0.70;;;;;;;16.30;47.55;100222.77;1767026;81;21044;-81
2022/05/29 11:37:21;;;;;;;3.90;0.65;;;;;;;16.25;47.31;100215.11;1750990;80;21117;-82
2022/05/29 11:39:54;;;;;;;2.83;0.80;;;;;;;16.08;46.90;100214.02;1771276;80;21008;-82
2022/05/29 11:42:37;;;;;;;2.52;0.82;;;;;;;15.95;47.17;100215.24;1750206;81;21029;-78
2022/05/29 11:45:22;;;;;;;3.33;0.90;;;;;;;15.83;47.38;100212.90;1749154;80;20989;-78
2022/05/29 11:51:18;;;;;;;2.77;0.70;;;;;;;15.72;47.25;100196.86;1750640;81;21130;-78
2022/05/29 11:54:11;;;;;;;1.87;0.65;;;;;;;15.67;46.95;100173.31;1750660;81;20997;-79
2022/05/29 11:56:47;;;;;;;4.72;0.62;;;;;;;15.67;46.95;100173.31;1750685;81;21562;-79
2022/05/29 11:59:51;;;;;;;5.28;1.10;;;;;;;15.83;47.25;100177.22;1771612;80;20981;-77
2022/05/29 12:02:33;;;;;;;1.98;0.60;;;;;;;15.95;47.22;100179.56;1750565;81;20998;-88
2022/05/29 12:05:35;;;;;;;3.83;0.90;;;;;;;16.04;47.31;100182.45;1749992;81;21124;-84
2022/05/29 12:08:36;;;;;;;1.60;0.78;;;;;;;16.13;47.37;100174.44;1749396;80;21033;-85
2022/05/29 12:11:40;;;;;;;1.47;0.50;;;;;;;16.30;47.65;100177.33;1750937;81;21028;-84
2022/05/29 12:14:27;;;;;;;2.12;0.70;;;;;;;16.39;47.54;100162.17;1749934;80;21575;-79
2022/05/29 12:16:59;;;;;;;1.95;0.68;;;;;;;16.69;47.61;100167.73;1771752;81;21510;-80
2022/05/29 12:19:41;;;;;;;3.98;0.90;;;;;;;16.69;47.61;100167.73;1750898;81;21112;-83
2022/05/29 12:22:10;;;;;;;4.72;1.25;;;;;;;16.92;47.56;100152.98;1733562;79;21100;-78
2022/05/29 12:24:46;;;;;;;3.02;1.00;;;;;;;17.47;47.60;100147.88;1751116;81;21042;-78
2022/05/29 12:27:21;;;;;;;5.90;0.93;;;;;;;17.93;47.34;100155.28;1751695;81;20972;-79
2022/05/29 12:30:10;;;;;;;3.42;0.90;;;;;;;18.39;47.09;100158.55;1748216;81;21143;-84
2022/05/29 12:32:37;;;;;;;3.47;0.90;;;;;;;18.79;46.16;100150.79;1715058;81;21267;-80
2022/05/29 12:35:15;;;;;;;4.08;0.70;;;;;;;19.12;45.69;100144.27;1734850;81;21519;-80
2022/05/29 12:38:34;;;;;;;2.75;0.65;;;;;;;19.36;44.98;100148.14;1743343;81;21521;-80
2022/05/29 12:41:25;;;;;;;1.98;0.80;;;;;;;19.44;44.33;100151.55;1729341;81;27060;-80
2022/05/29 12:44:18;;;;;;;1.87;0.78;;;;;;;19.50;43.85;100155.04;1725005;81;20979;-80